createdAt,value
2022-10-20T00:03:45.142Z,100800.97
2022-10-20T00:08:46.906Z,100795.53
2022-10-20T00:13:50.722Z,100790.06
2022-10-20T00:18:52.289Z,100794.88
2022-10-20T00:23:53.762Z,100797.94
2022-10-20T00:28:56.301Z,100792.03
2022-10-20T00:33:57.848Z,100781.78
2022-10-20T00:39:01.261Z,100776.28
2022-10-20T00:44:41.569Z,100776.22
2022-10-20T00:49:43.622Z,100773.97
2022-10-20T00:54:45.199Z,100764.03
2022-10-20T00:59:46.719Z,100759.06
2022-10-20T01:04:49.010Z,100755.50
2022-10-20T01:09:50.720Z,100755.81
2022-10-20T01:15:14.061Z,100748.75
2022-10-20T01:20:43.207Z,100746.88
2022-10-20T01:25:59.863Z,100737.00
2022-10-20T01:31:09.400Z,100733.22
2022-10-20T01:36:19.693Z,100734.75
2022-10-20T01:41:40.659Z,100733.44
2022-10-20T01:46:43.318Z,100731.78
2022-10-20T01:51:44.828Z,100722.72
2022-10-20T01:56:52.477Z,100711.31
2022-10-20T02:02:24.798Z,100699.13
2022-10-20T02:07:31.104Z,100679.50
2022-10-20T02:12:37.812Z,100675.75
2022-10-20T02:17:41.959Z,100664.00
2022-10-20T02:22:44.820Z,100656.41
2022-10-20T02:27:47.901Z,100674.16
2022-10-20T02:32:52.381Z,100672.03
2022-10-20T02:37:54.485Z,100666.31
2022-10-20T02:42:55.940Z,100657.47
2022-10-20T02:47:57.505Z,100652.13
2022-10-20T02:52:58.974Z,100633.50
2022-10-20T02:58:00.425Z,100644.31
2022-10-20T03:03:01.878Z,100658.28
2022-10-20T03:08:03.329Z,100623.22
2022-10-20T03:13:06.385Z,100635.38
2022-10-20T03:18:07.919Z,100635.41
2022-10-20T03:23:09.469Z,100632.50
2022-10-20T03:28:11.211Z,100633.13
2022-10-20T03:33:12.655Z,100619.34
2022-10-20T03:38:14.299Z,100625.69
2022-10-20T03:43:15.883Z,100613.16
2022-10-20T03:48:17.303Z,100622.19
2022-10-20T03:53:18.791Z,100617.59
2022-10-20T03:58:20.232Z,100612.84
2022-10-20T04:03:21.631Z,100613.59
2022-10-20T04:08:23.122Z,100599.81
2022-10-20T04:13:24.573Z,100597.69
2022-10-20T04:18:25.997Z,100588.84
2022-10-20T04:23:27.458Z,100578.94
2022-10-20T04:28:29.346Z,100581.66
2022-10-20T04:33:31.019Z,100567.81
2022-10-20T04:38:33.881Z,100556.34
2022-10-20T04:43:35.300Z,100545.13
2022-10-20T04:48:37.563Z,100539.91
2022-10-20T04:53:39.045Z,100539.25
2022-10-20T04:58:40.832Z,100522.31
2022-10-20T05:03:42.235Z,100509.59
2022-10-20T05:08:46.162Z,100526.09
2022-10-20T05:13:47.730Z,100536.03
2022-10-20T05:18:49.674Z,100521.66
2022-10-20T05:23:56.157Z,100509.91
2022-10-20T05:28:57.731Z,100506.75
2022-10-20T05:33:59.169Z,100504.75
2022-10-20T05:39:00.641Z,100502.94
2022-10-20T05:44:05.000Z,100512.16
2022-10-20T05:49:07.253Z,100526.50
2022-10-20T05:54:11.303Z,100508.84
2022-10-20T05:59:13.610Z,100496.09
2022-10-20T06:04:17.213Z,100521.88
2022-10-20T06:09:18.836Z,100535.19
2022-10-20T06:14:20.750Z,100533.81
2022-10-20T06:19:23.632Z,100554.63
2022-10-20T06:24:25.155Z,100545.50
2022-10-20T06:29:26.615Z,100534.22
2022-10-20T06:34:28.132Z,100534.41
2022-10-20T06:39:29.551Z,100547.38
2022-10-20T06:44:31.111Z,100566.06
2022-10-20T06:49:32.542Z,100560.00
2022-10-20T06:54:33.949Z,100573.16
2022-10-20T06:59:35.377Z,100578.47
2022-10-20T07:04:36.856Z,100553.44
2022-10-20T07:09:38.403Z,100558.75
2022-10-20T07:14:39.883Z,100545.78
2022-10-20T07:19:41.301Z,100528.28
2022-10-20T07:24:42.779Z,100554.63
2022-10-20T07:29:44.276Z,100532.59
2022-10-20T07:34:45.823Z,100537.50
2022-10-20T07:39:47.243Z,100534.28
2022-10-20T07:44:48.684Z,100536.94
2022-10-20T07:49:50.117Z,100529.94
2022-10-20T07:54:58.027Z,100524.50
2022-10-20T08:00:08.491Z,100511.94
2022-10-20T08:05:10.160Z,100504.00
2022-10-20T08:10:12.254Z,100510.56
2022-10-20T08:15:13.723Z,100505.53
2022-10-20T08:20:15.329Z,100484.03
2022-10-20T10:20:15.086Z,100507.03
2022-10-20T10:25:27.459Z,100493.94
2022-10-20T10:30:31.897Z,100465.31
2022-10-20T10:35:40.273Z,100431.13
2022-10-20T10:40:56.602Z,100447.50
2022-10-20T10:46:19.604Z,100431.81
2022-10-20T10:51:39.853Z,100431.97
2022-10-20T10:56:46.225Z,100442.41
2022-10-20T11:02:09.495Z,100442.13
2022-10-20T11:07:48.055Z,100439.41
2022-10-20T11:13:11.521Z,100456.16
2022-10-20T11:18:41.553Z,100475.41
2022-10-20T11:24:02.390Z,100477.25
2022-10-20T11:29:09.860Z,100481.56
2022-10-20T11:34:46.530Z,100483.75
2022-10-20T11:39:57.230Z,100468.91
2022-10-20T11:45:01.289Z,100461.75
2022-10-20T11:50:11.710Z,100454.78
2022-10-20T11:55:41.237Z,100454.38
2022-10-20T12:01:13.734Z,100432.88
2022-10-20T12:06:26.126Z,100442.91
2022-10-20T12:11:35.168Z,100440.78
2022-10-20T12:16:51.940Z,100426.22
2022-10-20T12:22:06.921Z,100405.94
2022-10-20T12:27:08.296Z,100403.94
2022-10-20T12:32:22.008Z,100393.66
2022-10-20T12:37:36.413Z,100372.38
2022-10-20T12:42:46.175Z,100358.56
2022-10-20T12:47:50.967Z,100363.19
2022-10-20T12:52:52.635Z,100357.31
2022-10-20T12:58:31.295Z,100350.09
2022-10-20T13:03:45.856Z,100368.25
2022-10-20T13:09:09.958Z,100361.31
2022-10-20T13:14:35.720Z,100372.41
2022-10-20T13:19:48.127Z,100359.94
2022-10-20T13:24:51.648Z,100356.75
2022-10-20T13:29:54.105Z,100359.59
2022-10-20T13:35:16.197Z,100356.66
2022-10-20T13:40:42.219Z,100361.00
2022-10-20T13:45:49.411Z,100358.06
2022-10-20T13:50:58.459Z,100359.03
2022-10-20T13:56:03.004Z,100360.38
2022-10-20T14:01:14.863Z,100369.66
2022-10-20T14:06:37.849Z,100370.28
2022-10-20T14:11:40.680Z,100385.09
2022-10-20T14:17:07.197Z,100384.09
2022-10-20T14:22:19.686Z,100375.00
2022-10-20T14:27:30.594Z,100355.41
2022-10-20T14:32:35.473Z,100370.81
2022-10-20T14:37:44.630Z,100350.16
2022-10-20T14:42:46.337Z,100345.53
2022-10-20T14:47:49.187Z,100314.00
2022-10-20T14:52:53.949Z,100291.44
2022-10-20T14:57:55.855Z,100325.81
2022-10-20T15:02:59.262Z,100338.03
2022-10-20T15:08:26.319Z,100349.81
2022-10-20T15:13:33.568Z,100351.25
2022-10-20T15:18:39.286Z,100324.22
2022-10-20T15:23:41.406Z,100326.59
2022-10-20T15:28:47.940Z,100315.28
2022-10-20T15:33:50.273Z,100324.00
2022-10-20T15:38:51.805Z,100335.78
2022-10-20T15:43:54.101Z,100333.31
2022-10-20T15:48:55.630Z,100321.56
2022-10-20T15:53:57.807Z,100322.63
2022-10-20T15:58:59.338Z,100297.22
2022-10-20T16:04:03.015Z,100288.63
2022-10-20T16:09:04.591Z,100285.97
2022-10-20T16:14:06.146Z,100290.13
2022-10-20T16:19:08.032Z,100280.78
2022-10-20T16:24:09.471Z,100293.19
2022-10-20T16:29:11.091Z,100275.31
2022-10-20T16:34:12.528Z,100269.97
2022-10-20T16:39:13.969Z,100273.56
2022-10-20T16:44:15.407Z,100280.41
2022-10-20T16:49:16.932Z,100277.59
2022-10-20T16:54:18.751Z,100270.75
2022-10-20T16:59:20.442Z,100268.34
2022-10-20T17:04:21.978Z,100253.06
2022-10-20T17:09:23.437Z,100270.16
2022-10-20T17:14:24.960Z,100256.44
2022-10-20T17:19:26.779Z,100247.91
2022-10-20T17:24:28.338Z,100238.00
2022-10-20T17:29:29.770Z,100248.38
2022-10-20T17:34:31.924Z,100242.53
2022-10-20T17:39:33.440Z,100245.13
2022-10-20T17:44:34.951Z,100234.94
2022-10-20T17:49:36.418Z,100238.03
2022-10-20T17:54:37.854Z,100249.09
2022-10-20T17:59:52.151Z,100243.00
2022-10-20T18:04:55.675Z,100244.22
2022-10-20T18:09:57.086Z,100259.81
2022-10-20T18:14:58.510Z,100255.75
2022-10-20T18:20:00.035Z,100271.50
2022-10-20T18:25:04.911Z,100245.47
2022-10-20T18:30:07.234Z,100227.28
2022-10-20T18:35:09.273Z,100245.72
2022-10-20T18:40:11.153Z,100248.56
2022-10-20T18:45:12.623Z,100244.63
2022-10-20T18:50:14.053Z,100240.59
2022-10-20T18:55:15.532Z,100248.38
2022-10-20T19:00:17.181Z,100235.72
2022-10-20T19:05:18.658Z,100216.94
2022-10-20T19:10:20.061Z,100219.41
2022-10-20T19:15:21.482Z,100209.16
2022-10-20T19:20:22.941Z,100214.47
2022-10-20T19:25:24.480Z,100211.00
2022-10-20T19:30:26.240Z,100198.88
2022-10-20T19:35:27.772Z,100191.88
2022-10-20T19:40:29.206Z,100190.56
2022-10-20T19:45:30.636Z,100169.97
2022-10-20T19:50:33.829Z,100166.13
2022-10-20T19:55:35.258Z,100147.78
2022-10-20T20:00:36.834Z,100159.16
2022-10-20T20:05:38.516Z,100159.53
2022-10-20T20:10:39.954Z,100145.38
2022-10-20T20:15:41.370Z,100145.28
2022-10-20T20:20:44.813Z,100137.59
2022-10-20T20:25:46.330Z,100146.28
2022-10-20T20:31:05.747Z,100145.38
2022-10-20T20:36:08.628Z,100143.09
2022-10-20T20:41:16.142Z,100133.81
2022-10-20T20:46:19.387Z,100123.38
2022-10-20T20:51:21.403Z,100121.25
2022-10-20T20:56:23.399Z,100118.22
2022-10-20T21:01:29.929Z,100119.56
2022-10-20T21:06:49.546Z,100107.97
2022-10-20T21:11:53.856Z,100119.88
2022-10-20T21:16:55.954Z,100104.13
2022-10-20T21:21:57.495Z,100101.47
2022-10-20T21:26:59.033Z,100110.88
2022-10-20T21:32:00.575Z,100104.78
2022-10-20T21:37:02.012Z,100128.66
2022-10-20T21:42:03.850Z,100117.53
2022-10-20T21:47:05.253Z,100116.75
2022-10-20T21:52:06.687Z,100115.00
2022-10-20T21:57:08.172Z,100115.94
2022-10-20T22:02:09.597Z,100121.00
2022-10-20T22:07:11.115Z,100136.16
2022-10-20T22:12:12.505Z,100132.41
2022-10-20T22:17:13.983Z,100132.97
2022-10-20T22:22:15.416Z,100140.53
2022-10-20T22:27:31.238Z,100146.50
2022-10-20T22:32:38.441Z,100142.88
2022-10-20T22:37:40.180Z,100145.81
2022-10-20T22:42:41.850Z,100148.06
2022-10-20T22:47:43.497Z,100161.63
2022-10-20T22:52:45.110Z,100178.09
2022-10-20T22:57:48.211Z,100186.53
2022-10-20T23:02:49.761Z,100191.28
2022-10-20T23:07:51.198Z,100179.16
2022-10-20T23:12:52.642Z,100169.09
2022-10-20T23:17:54.068Z,100152.34
2022-10-20T23:22:55.539Z,100153.88
2022-10-20T23:27:56.965Z,100139.06
2022-10-20T23:32:58.472Z,100128.94
2022-10-20T23:37:59.912Z,100111.50
2022-10-20T23:43:01.391Z,100092.19
2022-10-20T23:48:02.840Z,100067.81
2022-10-20T23:53:04.308Z,100059.84
2022-10-20T23:58:05.726Z,100048.03
